<?xml version="1.0" encoding="UTF-8" standalone="no" ?>
<gpx xmlns="http://www.topografix.com/GPX/1/1" xmlns:xsi="http://www.w3.org/2001/XMLSchema-instance" xsi:schemaLocation="http://www.topografix.com/GPX/1/1 http://www.topografix.com/GPX/1/1/gpx.xsd" version="1.1" creator="VisuGPX - https://www.visugpx.com">
  <metadata>
    <name>La Chapelle en vexin 38km</name>
    <desc><![CDATA[Parcours vallonné et diversifié...très roulant]]></desc>
  </metadata>
  <trk>
    <name><![CDATA[CHAPELLE-en-Vexin 38km]]></name>
    <trkseg>
      <trkpt lat="49.18289" lon="1.73255">
        <ele>137.39999389648</ele>
        <time>2013-09-04T12:06:00Z</time>
      </trkpt>
      <trkpt lat="49.18291" lon="1.73256">
        <ele>137.60000610352</ele>
        <time>2013-09-04T12:06:19Z</time>
      </trkpt>
      <trkpt lat="49.18302" lon="1.73261">
        <ele>137.60000610352</ele>
        <time>2013-09-04T12:09:37Z</time>
      </trkpt>
      <trkpt lat="49.18233" lon="1.73147">
        <ele>138.19999694824</ele>
        <time>2013-09-04T12:10:18Z</time>
      </trkpt>
      <trkpt lat="49.1805" lon="1.72999">
        <ele>140</ele>
        <time>2013-09-04T12:11:09Z</time>
      </trkpt>
      <trkpt lat="49.17913" lon="1.72762">
        <ele>138.60000610352</ele>
        <time>2013-09-04T12:11:54Z</time>
      </trkpt>
      <trkpt lat="49.17878" lon="1.72661">
        <ele>135.60000610352</ele>
        <time>2013-09-04T12:12:06Z</time>
      </trkpt>
      <trkpt lat="49.1781" lon="1.72545">
        <ele>129.80000305176</ele>
        <time>2013-09-04T12:12:19Z</time>
      </trkpt>
      <trkpt lat="49.17788" lon="1.72509">
        <ele>126.80000305176</ele>
        <time>2013-09-04T12:12:22Z</time>
      </trkpt>
      <trkpt lat="49.17761" lon="1.72469">
        <ele>124.40000152588</ele>
        <time>2013-09-04T12:12:26Z</time>
      </trkpt>
      <trkpt lat="49.17748" lon="1.72442">
        <ele>121.19999694824</ele>
        <time>2013-09-04T12:12:29Z</time>
      </trkpt>
      <trkpt lat="49.17719" lon="1.72376">
        <ele>118.19999694824</ele>
        <time>2013-09-04T12:12:37Z</time>
      </trkpt>
      <trkpt lat="49.17652" lon="1.72202">
        <ele>118.19999694824</ele>
        <time>2013-09-04T12:13:05Z</time>
      </trkpt>
      <trkpt lat="49.17631" lon="1.72151">
        <ele>121</ele>
        <time>2013-09-04T12:13:27Z</time>
      </trkpt>
      <trkpt lat="49.17623" lon="1.72089">
        <ele>125.59999847412</ele>
        <time>2013-09-04T12:13:50Z</time>
      </trkpt>
      <trkpt lat="49.17624" lon="1.72055">
        <ele>128.80000305176</ele>
        <time>2013-09-04T12:14:04Z</time>
      </trkpt>
      <trkpt lat="49.17628" lon="1.72017">
        <ele>133.19999694824</ele>
        <time>2013-09-04T12:14:20Z</time>
      </trkpt>
      <trkpt lat="49.17629" lon="1.72005">
        <ele>134.60000610352</ele>
        <time>2013-09-04T12:14:26Z</time>
      </trkpt>
      <trkpt lat="49.17606" lon="1.71963">
        <ele>139.39999389648</ele>
        <time>2013-09-04T12:14:45Z</time>
      </trkpt>
      <trkpt lat="49.17585" lon="1.71948">
        <ele>143</ele>
        <time>2013-09-04T12:15:01Z</time>
      </trkpt>
      <trkpt lat="49.17558" lon="1.71946">
        <ele>146</ele>
        <time>2013-09-04T12:15:21Z</time>
      </trkpt>
      <trkpt lat="49.17515" lon="1.71947">
        <ele>149.60000610352</ele>
        <time>2013-09-04T12:15:47Z</time>
      </trkpt>
      <trkpt lat="49.17418" lon="1.7188">
        <ele>153</ele>
        <time>2013-09-04T12:16:32Z</time>
      </trkpt>
      <trkpt lat="49.1733" lon="1.71786">
        <ele>152.80000305176</ele>
        <time>2013-09-04T12:17:21Z</time>
      </trkpt>
      <trkpt lat="49.17207" lon="1.71663">
        <ele>148.60000610352</ele>
        <time>2013-09-04T12:17:56Z</time>
      </trkpt>
      <trkpt lat="49.17154" lon="1.71575">
        <ele>143.39999389648</ele>
        <time>2013-09-04T12:18:15Z</time>
      </trkpt>
      <trkpt lat="49.17096" lon="1.71458">
        <ele>139.80000305176</ele>
        <time>2013-09-04T12:18:32Z</time>
      </trkpt>
      <trkpt lat="49.17032" lon="1.7137">
        <ele>136.60000610352</ele>
        <time>2013-09-04T12:18:43Z</time>
      </trkpt>
      <trkpt lat="49.16925" lon="1.71232">
        <ele>132</ele>
        <time>2013-09-04T12:19:10Z</time>
      </trkpt>
      <trkpt lat="49.16834" lon="1.71096">
        <ele>127.19999694824</ele>
        <time>2013-09-04T12:19:39Z</time>
      </trkpt>
      <trkpt lat="49.16759" lon="1.70987">
        <ele>124</ele>
        <time>2013-09-04T12:20:01Z</time>
      </trkpt>
      <trkpt lat="49.16672" lon="1.70952">
        <ele>119</ele>
        <time>2013-09-04T12:20:21Z</time>
      </trkpt>
      <trkpt lat="49.16618" lon="1.70935">
        <ele>116.19999694824</ele>
        <time>2013-09-04T12:20:39Z</time>
      </trkpt>
      <trkpt lat="49.16616" lon="1.7078">
        <ele>117</ele>
        <time>2013-09-04T12:21:07Z</time>
      </trkpt>
      <trkpt lat="49.16631" lon="1.70664">
        <ele>121.80000305176</ele>
        <time>2013-09-04T12:21:38Z</time>
      </trkpt>
      <trkpt lat="49.16656" lon="1.70526">
        <ele>127.19999694824</ele>
        <time>2013-09-04T12:22:15Z</time>
      </trkpt>
      <trkpt lat="49.16679" lon="1.70386">
        <ele>131.39999389648</ele>
        <time>2013-09-04T12:22:48Z</time>
      </trkpt>
      <trkpt lat="49.16703" lon="1.70233">
        <ele>134.60000610352</ele>
        <time>2013-09-04T12:23:21Z</time>
      </trkpt>
      <trkpt lat="49.16714" lon="1.69977">
        <ele>135.80000305176</ele>
        <time>2013-09-04T12:24:08Z</time>
      </trkpt>
      <trkpt lat="49.16692" lon="1.69972">
        <ele>136.19999694824</ele>
        <time>2013-09-04T12:24:21Z</time>
      </trkpt>
      <trkpt lat="49.16676" lon="1.69973">
        <ele>136.80000305176</ele>
        <time>2013-09-04T12:26:01Z</time>
      </trkpt>
      <trkpt lat="49.16597" lon="1.69968">
        <ele>137</ele>
        <time>2013-09-04T12:26:26Z</time>
      </trkpt>
      <trkpt lat="49.16185" lon="1.69931">
        <ele>133.39999389648</ele>
        <time>2013-09-04T12:28:08Z</time>
      </trkpt>
      <trkpt lat="49.16159" lon="1.69928">
        <ele>132.80000305176</ele>
        <time>2013-09-04T12:28:15Z</time>
      </trkpt>
      <trkpt lat="49.16148" lon="1.69897">
        <ele>132.19999694824</ele>
        <time>2013-09-04T12:28:21Z</time>
      </trkpt>
      <trkpt lat="49.15958" lon="1.69386">
        <ele>128.19999694824</ele>
        <time>2013-09-04T12:29:43Z</time>
      </trkpt>
      <trkpt lat="49.15875" lon="1.69162">
        <ele>125.59999847412</ele>
        <time>2013-09-04T12:30:17Z</time>
      </trkpt>
      <trkpt lat="49.15788" lon="1.69039">
        <ele>123.19999694824</ele>
        <time>2013-09-04T12:30:43Z</time>
      </trkpt>
      <trkpt lat="49.15768" lon="1.69006">
        <ele>123.59999847412</ele>
        <time>2013-09-04T12:30:53Z</time>
      </trkpt>
      <trkpt lat="49.15806" lon="1.68954">
        <ele>126.40000152588</ele>
        <time>2013-09-04T12:31:12Z</time>
      </trkpt>
      <trkpt lat="49.15904" lon="1.6883">
        <ele>130.39999389648</ele>
        <time>2013-09-04T12:31:52Z</time>
      </trkpt>
      <trkpt lat="49.1601" lon="1.68681">
        <ele>132.60000610352</ele>
        <time>2013-09-04T12:32:33Z</time>
      </trkpt>
      <trkpt lat="49.16112" lon="1.68426">
        <ele>128.60000610352</ele>
        <time>2013-09-04T12:33:19Z</time>
      </trkpt>
      <trkpt lat="49.16148" lon="1.68385">
        <ele>125</ele>
        <time>2013-09-04T12:33:36Z</time>
      </trkpt>
      <trkpt lat="49.1619" lon="1.68357">
        <ele>121.59999847412</ele>
        <time>2013-09-04T12:33:50Z</time>
      </trkpt>
      <trkpt lat="49.16219" lon="1.68336">
        <ele>118.19999694824</ele>
        <time>2013-09-04T12:33:56Z</time>
      </trkpt>
      <trkpt lat="49.1623" lon="1.68328">
        <ele>114.80000305176</ele>
        <time>2013-09-04T12:33:59Z</time>
      </trkpt>
      <trkpt lat="49.16255" lon="1.68309">
        <ele>111.80000305176</ele>
        <time>2013-09-04T12:34:03Z</time>
      </trkpt>
      <trkpt lat="49.16275" lon="1.68293">
        <ele>108.80000305176</ele>
        <time>2013-09-04T12:34:06Z</time>
      </trkpt>
      <trkpt lat="49.16334" lon="1.68257">
        <ele>102.80000305176</ele>
        <time>2013-09-04T12:34:14Z</time>
      </trkpt>
      <trkpt lat="49.16353" lon="1.68242">
        <ele>99.599998474121</ele>
        <time>2013-09-04T12:34:18Z</time>
      </trkpt>
      <trkpt lat="49.16378" lon="1.68222">
        <ele>96.599998474121</ele>
        <time>2013-09-04T12:34:24Z</time>
      </trkpt>
      <trkpt lat="49.16445" lon="1.68164">
        <ele>90.800003051758</ele>
        <time>2013-09-04T12:34:41Z</time>
      </trkpt>
      <trkpt lat="49.16489" lon="1.68112">
        <ele>87.199996948242</ele>
        <time>2013-09-04T12:34:56Z</time>
      </trkpt>
      <trkpt lat="49.16501" lon="1.68078">
        <ele>83.800003051758</ele>
        <time>2013-09-04T12:35:04Z</time>
      </trkpt>
      <trkpt lat="49.16506" lon="1.68058">
        <ele>80.800003051758</ele>
        <time>2013-09-04T12:35:09Z</time>
      </trkpt>
      <trkpt lat="49.1651" lon="1.68045">
        <ele>77.800003051758</ele>
        <time>2013-09-04T12:36:11Z</time>
      </trkpt>
      <trkpt lat="49.16518" lon="1.68032">
        <ele>74.400001525879</ele>
        <time>2013-09-04T12:36:43Z</time>
      </trkpt>
      <trkpt lat="49.16522" lon="1.68019">
        <ele>73.199996948242</ele>
        <time>2013-09-04T12:36:53Z</time>
      </trkpt>
      <trkpt lat="49.16542" lon="1.67994">
        <ele>69.199996948242</ele>
        <time>2013-09-04T12:36:59Z</time>
      </trkpt>
      <trkpt lat="49.16555" lon="1.6797">
        <ele>66.199996948242</ele>
        <time>2013-09-04T12:37:04Z</time>
      </trkpt>
      <trkpt lat="49.16564" lon="1.6792">
        <ele>61</ele>
        <time>2013-09-04T12:37:11Z</time>
      </trkpt>
      <trkpt lat="49.16579" lon="1.67883">
        <ele>57</ele>
        <time>2013-09-04T12:37:18Z</time>
      </trkpt>
      <trkpt lat="49.16587" lon="1.67849">
        <ele>54</ele>
        <time>2013-09-04T12:37:28Z</time>
      </trkpt>
      <trkpt lat="49.16594" lon="1.67778">
        <ele>50.400001525879</ele>
        <time>2013-09-04T12:37:42Z</time>
      </trkpt>
      <trkpt lat="49.16607" lon="1.67685">
        <ele>47.400001525879</ele>
        <time>2013-09-04T12:37:55Z</time>
      </trkpt>
      <trkpt lat="49.16668" lon="1.67624">
        <ele>43.400001525879</ele>
        <time>2013-09-04T12:38:18Z</time>
      </trkpt>
      <trkpt lat="49.16663" lon="1.67498">
        <ele>39.799999237061</ele>
        <time>2013-09-04T12:38:37Z</time>
      </trkpt>
      <trkpt lat="49.16664" lon="1.67486">
        <ele>38.400001525879</ele>
        <time>2013-09-04T12:38:48Z</time>
      </trkpt>
      <trkpt lat="49.16663" lon="1.67552">
        <ele>40</ele>
        <time>2013-09-04T12:39:04Z</time>
      </trkpt>
      <trkpt lat="49.16663" lon="1.67563">
        <ele>39.799999237061</ele>
        <time>2013-09-04T12:39:20Z</time>
      </trkpt>
      <trkpt lat="49.16664" lon="1.67544">
        <ele>39.400001525879</ele>
        <time>2013-09-04T12:39:24Z</time>
      </trkpt>
      <trkpt lat="49.16667" lon="1.67388">
        <ele>36.799999237061</ele>
        <time>2013-09-04T12:39:48Z</time>
      </trkpt>
      <trkpt lat="49.16614" lon="1.67387">
        <ele>35.400001525879</ele>
        <time>2013-09-04T12:40:05Z</time>
      </trkpt>
      <trkpt lat="49.16552" lon="1.67388">
        <ele>34.599998474121</ele>
        <time>2013-09-04T12:40:19Z</time>
      </trkpt>
      <trkpt lat="49.16534" lon="1.6738">
        <ele>34.599998474121</ele>
        <time>2013-09-04T12:40:23Z</time>
      </trkpt>
      <trkpt lat="49.16394" lon="1.67216">
        <ele>33.799999237061</ele>
        <time>2013-09-04T12:41:15Z</time>
      </trkpt>
      <trkpt lat="49.164" lon="1.67186">
        <ele>33.400001525879</ele>
        <time>2013-09-04T12:41:19Z</time>
      </trkpt>
      <trkpt lat="49.16413" lon="1.67117">
        <ele>33.799999237061</ele>
        <time>2013-09-04T12:41:28Z</time>
      </trkpt>
      <trkpt lat="49.16422" lon="1.66478">
        <ele>35</ele>
        <time>2013-09-04T12:42:59Z</time>
      </trkpt>
      <trkpt lat="49.16422" lon="1.66431">
        <ele>35.200000762939</ele>
        <time>2013-09-04T12:43:09Z</time>
      </trkpt>
      <trkpt lat="49.16419" lon="1.66396">
        <ele>34.799999237061</ele>
        <time>2013-09-04T12:43:16Z</time>
      </trkpt>
      <trkpt lat="49.16478" lon="1.66256">
        <ele>37.599998474121</ele>
        <time>2013-09-04T12:43:54Z</time>
      </trkpt>
      <trkpt lat="49.1648" lon="1.66246">
        <ele>37.599998474121</ele>
        <time>2013-09-04T12:43:56Z</time>
      </trkpt>
      <trkpt lat="49.16531" lon="1.6587">
        <ele>41.200000762939</ele>
        <time>2013-09-04T12:45:06Z</time>
      </trkpt>
      <trkpt lat="49.16552" lon="1.65805">
        <ele>41.400001525879</ele>
        <time>2013-09-04T12:45:18Z</time>
      </trkpt>
      <trkpt lat="49.16564" lon="1.65746">
        <ele>43</ele>
        <time>2013-09-04T12:50:34Z</time>
      </trkpt>
      <trkpt lat="49.16567" lon="1.65748">
        <ele>43</ele>
        <time>2013-09-04T12:50:35Z</time>
      </trkpt>
      <trkpt lat="49.16608" lon="1.65788">
        <ele>48</ele>
        <time>2013-09-04T12:50:57Z</time>
      </trkpt>
      <trkpt lat="49.1662" lon="1.65799">
        <ele>51.400001525879</ele>
        <time>2013-09-04T12:51:03Z</time>
      </trkpt>
      <trkpt lat="49.16629" lon="1.65808">
        <ele>54.599998474121</ele>
        <time>2013-09-04T12:51:09Z</time>
      </trkpt>
      <trkpt lat="49.16642" lon="1.65819">
        <ele>57.799999237061</ele>
        <time>2013-09-04T12:51:18Z</time>
      </trkpt>
      <trkpt lat="49.16656" lon="1.65833">
        <ele>60.799999237061</ele>
        <time>2013-09-04T12:51:29Z</time>
      </trkpt>
      <trkpt lat="49.16673" lon="1.65848">
        <ele>63.799999237061</ele>
        <time>2013-09-04T12:51:41Z</time>
      </trkpt>
      <trkpt lat="49.16685" lon="1.65861">
        <ele>66.800003051758</ele>
        <time>2013-09-04T12:51:51Z</time>
      </trkpt>
      <trkpt lat="49.16703" lon="1.65879">
        <ele>69.800003051758</ele>
        <time>2013-09-04T12:52:07Z</time>
      </trkpt>
      <trkpt lat="49.16724" lon="1.659">
        <ele>72.800003051758</ele>
        <time>2013-09-04T12:52:25Z</time>
      </trkpt>
      <trkpt lat="49.16747" lon="1.65921">
        <ele>75.599998474121</ele>
        <time>2013-09-04T12:52:46Z</time>
      </trkpt>
      <trkpt lat="49.1674" lon="1.65993">
        <ele>80.800003051758</ele>
        <time>2013-09-04T12:53:19Z</time>
      </trkpt>
      <trkpt lat="49.16739" lon="1.65996">
        <ele>80.599998474121</ele>
        <time>2013-09-04T12:53:20Z</time>
      </trkpt>
      <trkpt lat="49.16738" lon="1.66002">
        <ele>76.599998474121</ele>
        <time>2013-09-04T12:53:22Z</time>
      </trkpt>
      <trkpt lat="49.16737" lon="1.66005">
        <ele>76.400001525879</ele>
        <time>2013-09-04T12:53:23Z</time>
      </trkpt>
      <trkpt lat="49.16715" lon="1.66115">
        <ele>78.599998474121</ele>
        <time>2013-09-04T12:53:57Z</time>
      </trkpt>
      <trkpt lat="49.1678" lon="1.66117">
        <ele>80.800003051758</ele>
        <time>2013-09-04T12:54:30Z</time>
      </trkpt>
      <trkpt lat="49.1681" lon="1.66115">
        <ele>83.800003051758</ele>
        <time>2013-09-04T12:54:47Z</time>
      </trkpt>
      <trkpt lat="49.16835" lon="1.66116">
        <ele>86.800003051758</ele>
        <time>2013-09-04T12:55:02Z</time>
      </trkpt>
      <trkpt lat="49.16861" lon="1.66118">
        <ele>89.800003051758</ele>
        <time>2013-09-04T12:55:16Z</time>
      </trkpt>
      <trkpt lat="49.16868" lon="1.66121">
        <ele>90.599998474121</ele>
        <time>2013-09-04T12:56:00Z</time>
      </trkpt>
      <trkpt lat="49.16899" lon="1.66112">
        <ele>95</ele>
        <time>2013-09-04T12:56:21Z</time>
      </trkpt>
      <trkpt lat="49.16916" lon="1.66102">
        <ele>98</ele>
        <time>2013-09-04T12:56:34Z</time>
      </trkpt>
      <trkpt lat="49.16932" lon="1.66089">
        <ele>101</ele>
        <time>2013-09-04T12:56:48Z</time>
      </trkpt>
      <trkpt lat="49.16955" lon="1.66056">
        <ele>104.19999694824</ele>
        <time>2013-09-04T12:57:07Z</time>
      </trkpt>
      <trkpt lat="49.16966" lon="1.66017">
        <ele>108.80000305176</ele>
        <time>2013-09-04T12:57:17Z</time>
      </trkpt>
      <trkpt lat="49.1699" lon="1.65984">
        <ele>112.80000305176</ele>
        <time>2013-09-04T12:57:30Z</time>
      </trkpt>
      <trkpt lat="49.17028" lon="1.65945">
        <ele>116.59999847412</ele>
        <time>2013-09-04T12:57:58Z</time>
      </trkpt>
      <trkpt lat="49.17058" lon="1.65923">
        <ele>117.80000305176</ele>
        <time>2013-09-04T12:58:51Z</time>
      </trkpt>
      <trkpt lat="49.17173" lon="1.65842">
        <ele>122.40000152588</ele>
        <time>2013-09-04T13:00:03Z</time>
      </trkpt>
      <trkpt lat="49.17198" lon="1.65818">
        <ele>122.59999847412</ele>
        <time>2013-09-04T13:00:17Z</time>
      </trkpt>
      <trkpt lat="49.17324" lon="1.65663">
        <ele>124</ele>
        <time>2013-09-04T13:02:50Z</time>
      </trkpt>
      <trkpt lat="49.17391" lon="1.65573">
        <ele>124.19999694824</ele>
        <time>2013-09-04T13:03:16Z</time>
      </trkpt>
      <trkpt lat="49.17534" lon="1.65318">
        <ele>128</ele>
        <time>2013-09-04T13:08:29Z</time>
      </trkpt>
      <trkpt lat="49.17536" lon="1.65322">
        <ele>127.80000305176</ele>
        <time>2013-09-04T13:08:30Z</time>
      </trkpt>
      <trkpt lat="49.17666" lon="1.65637">
        <ele>125.19999694824</ele>
        <time>2013-09-04T13:10:06Z</time>
      </trkpt>
      <trkpt lat="49.17699" lon="1.65712">
        <ele>123.59999847412</ele>
        <time>2013-09-04T13:10:34Z</time>
      </trkpt>
      <trkpt lat="49.17786" lon="1.65764">
        <ele>117.40000152588</ele>
        <time>2013-09-04T13:10:50Z</time>
      </trkpt>
      <trkpt lat="49.17843" lon="1.65791">
        <ele>111.80000305176</ele>
        <time>2013-09-04T13:10:59Z</time>
      </trkpt>
      <trkpt lat="49.17874" lon="1.65817">
        <ele>108.59999847412</ele>
        <time>2013-09-04T13:11:04Z</time>
      </trkpt>
      <trkpt lat="49.17919" lon="1.65848">
        <ele>105.59999847412</ele>
        <time>2013-09-04T13:11:11Z</time>
      </trkpt>
      <trkpt lat="49.17952" lon="1.65865">
        <ele>101.40000152588</ele>
        <time>2013-09-04T13:11:16Z</time>
      </trkpt>
      <trkpt lat="49.1798" lon="1.65881">
        <ele>97.800003051758</ele>
        <time>2013-09-04T13:11:21Z</time>
      </trkpt>
      <trkpt lat="49.18022" lon="1.65906">
        <ele>91</ele>
        <time>2013-09-04T13:11:31Z</time>
      </trkpt>
      <trkpt lat="49.18037" lon="1.65914">
        <ele>88</ele>
        <time>2013-09-04T13:11:37Z</time>
      </trkpt>
      <trkpt lat="49.18044" lon="1.65919">
        <ele>85</ele>
        <time>2013-09-04T13:11:42Z</time>
      </trkpt>
      <trkpt lat="49.18052" lon="1.6592">
        <ele>81.400001525879</ele>
        <time>2013-09-04T13:11:47Z</time>
      </trkpt>
      <trkpt lat="49.18059" lon="1.65925">
        <ele>77.800003051758</ele>
        <time>2013-09-04T13:11:50Z</time>
      </trkpt>
      <trkpt lat="49.18073" lon="1.65926">
        <ele>71.800003051758</ele>
        <time>2013-09-04T13:11:55Z</time>
      </trkpt>
      <trkpt lat="49.18089" lon="1.65917">
        <ele>67.800003051758</ele>
        <time>2013-09-04T13:12:00Z</time>
      </trkpt>
      <trkpt lat="49.18142" lon="1.65914">
        <ele>63.400001525879</ele>
        <time>2013-09-04T13:12:06Z</time>
      </trkpt>
      <trkpt lat="49.18169" lon="1.65919">
        <ele>60.400001525879</ele>
        <time>2013-09-04T13:12:10Z</time>
      </trkpt>
      <trkpt lat="49.18195" lon="1.65909">
        <ele>57.200000762939</ele>
        <time>2013-09-04T13:12:15Z</time>
      </trkpt>
      <trkpt lat="49.18235" lon="1.6592">
        <ele>54.200000762939</ele>
        <time>2013-09-04T13:12:37Z</time>
      </trkpt>
      <trkpt lat="49.18298" lon="1.65973">
        <ele>51.400001525879</ele>
        <time>2013-09-04T13:13:15Z</time>
      </trkpt>
      <trkpt lat="49.18341" lon="1.65985">
        <ele>57</ele>
        <time>2013-09-04T13:13:42Z</time>
      </trkpt>
      <trkpt lat="49.18369" lon="1.65926">
        <ele>61.799999237061</ele>
        <time>2013-09-04T13:14:07Z</time>
      </trkpt>
      <trkpt lat="49.1842" lon="1.65894">
        <ele>67.199996948242</ele>
        <time>2013-09-04T13:14:34Z</time>
      </trkpt>
      <trkpt lat="49.18553" lon="1.65854">
        <ele>70.199996948242</ele>
        <time>2013-09-04T13:15:28Z</time>
      </trkpt>
      <trkpt lat="49.18656" lon="1.65907">
        <ele>70.599998474121</ele>
        <time>2013-09-04T13:15:58Z</time>
      </trkpt>
      <trkpt lat="49.1876" lon="1.65956">
        <ele>67</ele>
        <time>2013-09-04T13:16:25Z</time>
      </trkpt>
      <trkpt lat="49.18815" lon="1.6598">
        <ele>64.400001525879</ele>
        <time>2013-09-04T13:16:37Z</time>
      </trkpt>
      <trkpt lat="49.18892" lon="1.66032">
        <ele>61.200000762939</ele>
        <time>2013-09-04T13:16:51Z</time>
      </trkpt>
      <trkpt lat="49.18963" lon="1.66083">
        <ele>58</ele>
        <time>2013-09-04T13:17:02Z</time>
      </trkpt>
      <trkpt lat="49.19022" lon="1.66121">
        <ele>53.599998474121</ele>
        <time>2013-09-04T13:23:13Z</time>
      </trkpt>
      <trkpt lat="49.19026" lon="1.66122">
        <ele>53.599998474121</ele>
        <time>2013-09-04T13:23:14Z</time>
      </trkpt>
      <trkpt lat="49.19049" lon="1.66137">
        <ele>54.400001525879</ele>
        <time>2013-09-04T13:23:19Z</time>
      </trkpt>
      <trkpt lat="49.19086" lon="1.6616">
        <ele>55.799999237061</ele>
        <time>2013-09-04T13:23:26Z</time>
      </trkpt>
      <trkpt lat="49.19204" lon="1.66195">
        <ele>61.200000762939</ele>
        <time>2013-09-04T13:23:49Z</time>
      </trkpt>
      <trkpt lat="49.19306" lon="1.66222">
        <ele>65.199996948242</ele>
        <time>2013-09-04T13:24:16Z</time>
      </trkpt>
      <trkpt lat="49.19363" lon="1.66234">
        <ele>67.599998474121</ele>
        <time>2013-09-04T13:24:31Z</time>
      </trkpt>
      <trkpt lat="49.19372" lon="1.66235">
        <ele>67.800003051758</ele>
        <time>2013-09-04T13:24:33Z</time>
      </trkpt>
      <trkpt lat="49.19423" lon="1.66247">
        <ele>68.599998474121</ele>
        <time>2013-09-04T13:24:46Z</time>
      </trkpt>
      <trkpt lat="49.19545" lon="1.66275">
        <ele>73.400001525879</ele>
        <time>2013-09-04T13:25:18Z</time>
      </trkpt>
      <trkpt lat="49.19593" lon="1.66284">
        <ele>76.400001525879</ele>
        <time>2013-09-04T13:25:32Z</time>
      </trkpt>
      <trkpt lat="49.19654" lon="1.66294">
        <ele>79.400001525879</ele>
        <time>2013-09-04T13:25:56Z</time>
      </trkpt>
      <trkpt lat="49.19663" lon="1.66296">
        <ele>79.400001525879</ele>
        <time>2013-09-04T13:26:40Z</time>
      </trkpt>
      <trkpt lat="49.19668" lon="1.66294">
        <ele>79.800003051758</ele>
        <time>2013-09-04T13:30:55Z</time>
      </trkpt>
      <trkpt lat="49.19696" lon="1.66258">
        <ele>82.800003051758</ele>
        <time>2013-09-04T13:31:16Z</time>
      </trkpt>
      <trkpt lat="49.19692" lon="1.66179">
        <ele>86</ele>
        <time>2013-09-04T13:31:38Z</time>
      </trkpt>
      <trkpt lat="49.19693" lon="1.66133">
        <ele>89.199996948242</ele>
        <time>2013-09-04T13:31:51Z</time>
      </trkpt>
      <trkpt lat="49.19771" lon="1.66081">
        <ele>89.800003051758</ele>
        <time>2013-09-04T13:32:31Z</time>
      </trkpt>
      <trkpt lat="49.19869" lon="1.6615">
        <ele>83</ele>
        <time>2013-09-04T13:32:56Z</time>
      </trkpt>
      <trkpt lat="49.19878" lon="1.66136">
        <ele>83</ele>
        <time>2013-09-04T13:45:56Z</time>
      </trkpt>
      <trkpt lat="49.1988" lon="1.66087">
        <ele>81.599998474121</ele>
        <time>2013-09-04T13:46:01Z</time>
      </trkpt>
      <trkpt lat="49.19885" lon="1.66007">
        <ele>78.599998474121</ele>
        <time>2013-09-04T13:46:07Z</time>
      </trkpt>
      <trkpt lat="49.1989" lon="1.65946">
        <ele>75.599998474121</ele>
        <time>2013-09-04T13:46:11Z</time>
      </trkpt>
      <trkpt lat="49.19893" lon="1.65914">
        <ele>74.800003051758</ele>
        <time>2013-09-04T13:46:13Z</time>
      </trkpt>
      <trkpt lat="49.19909" lon="1.65816">
        <ele>71.800003051758</ele>
        <time>2013-09-04T13:46:19Z</time>
      </trkpt>
      <trkpt lat="49.19934" lon="1.65699">
        <ele>68.800003051758</ele>
        <time>2013-09-04T13:46:26Z</time>
      </trkpt>
      <trkpt lat="49.2002" lon="1.65578">
        <ele>66.199996948242</ele>
        <time>2013-09-04T13:46:39Z</time>
      </trkpt>
      <trkpt lat="49.2004" lon="1.65556">
        <ele>66</ele>
        <time>2013-09-04T13:46:46Z</time>
      </trkpt>
      <trkpt lat="49.20047" lon="1.65624">
        <ele>68</ele>
        <time>2013-09-04T13:47:07Z</time>
      </trkpt>
      <trkpt lat="49.20044" lon="1.65694">
        <ele>71</ele>
        <time>2013-09-04T13:47:25Z</time>
      </trkpt>
      <trkpt lat="49.20046" lon="1.65785">
        <ele>75.199996948242</ele>
        <time>2013-09-04T13:47:49Z</time>
      </trkpt>
      <trkpt lat="49.20099" lon="1.65845">
        <ele>78.400001525879</ele>
        <time>2013-09-04T13:48:14Z</time>
      </trkpt>
      <trkpt lat="49.20106" lon="1.65839">
        <ele>78.400001525879</ele>
        <time>2013-09-04T13:48:17Z</time>
      </trkpt>
      <trkpt lat="49.20104" lon="1.65787">
        <ele>79</ele>
        <time>2013-09-04T13:48:38Z</time>
      </trkpt>
      <trkpt lat="49.20104" lon="1.65781">
        <ele>79.599998474121</ele>
        <time>2013-09-04T13:50:05Z</time>
      </trkpt>
      <trkpt lat="49.20136" lon="1.65688">
        <ele>83.199996948242</ele>
        <time>2013-09-04T13:50:32Z</time>
      </trkpt>
      <trkpt lat="49.20159" lon="1.65642">
        <ele>86.199996948242</ele>
        <time>2013-09-04T13:50:47Z</time>
      </trkpt>
      <trkpt lat="49.20186" lon="1.65597">
        <ele>87.800003051758</ele>
        <time>2013-09-04T13:51:03Z</time>
      </trkpt>
      <trkpt lat="49.20241" lon="1.65502">
        <ele>91.400001525879</ele>
        <time>2013-09-04T13:51:34Z</time>
      </trkpt>
      <trkpt lat="49.20302" lon="1.65417">
        <ele>94.599998474121</ele>
        <time>2013-09-04T13:52:05Z</time>
      </trkpt>
      <trkpt lat="49.20326" lon="1.65384">
        <ele>97.599998474121</ele>
        <time>2013-09-04T13:52:17Z</time>
      </trkpt>
      <trkpt lat="49.20391" lon="1.65293">
        <ele>100.80000305176</ele>
        <time>2013-09-04T13:52:49Z</time>
      </trkpt>
      <trkpt lat="49.20499" lon="1.65116">
        <ele>104.40000152588</ele>
        <time>2013-09-04T13:53:39Z</time>
      </trkpt>
      <trkpt lat="49.20534" lon="1.64986">
        <ele>109</ele>
        <time>2013-09-04T13:54:05Z</time>
      </trkpt>
      <trkpt lat="49.2058" lon="1.64851">
        <ele>110.59999847412</ele>
        <time>2013-09-04T13:54:32Z</time>
      </trkpt>
      <trkpt lat="49.20653" lon="1.64738">
        <ele>109.80000305176</ele>
        <time>2013-09-04T13:54:56Z</time>
      </trkpt>
      <trkpt lat="49.20831" lon="1.6455">
        <ele>110.80000305176</ele>
        <time>2013-09-04T13:55:59Z</time>
      </trkpt>
      <trkpt lat="49.20909" lon="1.6449">
        <ele>116</ele>
        <time>2013-09-04T13:56:24Z</time>
      </trkpt>
      <trkpt lat="49.20937" lon="1.64463">
        <ele>119.19999694824</ele>
        <time>2013-09-04T13:56:33Z</time>
      </trkpt>
      <trkpt lat="49.20961" lon="1.64439">
        <ele>122.40000152588</ele>
        <time>2013-09-04T13:56:41Z</time>
      </trkpt>
      <trkpt lat="49.20983" lon="1.64413">
        <ele>125.40000152588</ele>
        <time>2013-09-04T13:56:49Z</time>
      </trkpt>
      <trkpt lat="49.21015" lon="1.6439">
        <ele>128.80000305176</ele>
        <time>2013-09-04T13:56:59Z</time>
      </trkpt>
      <trkpt lat="49.21047" lon="1.64377">
        <ele>132.80000305176</ele>
        <time>2013-09-04T13:57:11Z</time>
      </trkpt>
      <trkpt lat="49.2107" lon="1.64364">
        <ele>135.80000305176</ele>
        <time>2013-09-04T13:57:22Z</time>
      </trkpt>
      <trkpt lat="49.21099" lon="1.64345">
        <ele>139.39999389648</ele>
        <time>2013-09-04T13:58:31Z</time>
      </trkpt>
      <trkpt lat="49.21111" lon="1.64376">
        <ele>139.60000610352</ele>
        <time>2013-09-04T14:02:42Z</time>
      </trkpt>
      <trkpt lat="49.21167" lon="1.64431">
        <ele>138.39999389648</ele>
        <time>2013-09-04T14:03:04Z</time>
      </trkpt>
      <trkpt lat="49.21284" lon="1.64525">
        <ele>134</ele>
        <time>2013-09-04T14:03:33Z</time>
      </trkpt>
      <trkpt lat="49.21293" lon="1.64531">
        <ele>133.80000305176</ele>
        <time>2013-09-04T14:03:35Z</time>
      </trkpt>
      <trkpt lat="49.21373" lon="1.64563">
        <ele>128.80000305176</ele>
        <time>2013-09-04T14:03:51Z</time>
      </trkpt>
      <trkpt lat="49.21406" lon="1.64576">
        <ele>127.19999694824</ele>
        <time>2013-09-04T14:03:57Z</time>
      </trkpt>
      <trkpt lat="49.21453" lon="1.6457">
        <ele>123.80000305176</ele>
        <time>2013-09-04T14:04:05Z</time>
      </trkpt>
      <trkpt lat="49.21482" lon="1.64566">
        <ele>120.59999847412</ele>
        <time>2013-09-04T14:04:10Z</time>
      </trkpt>
      <trkpt lat="49.21508" lon="1.64562">
        <ele>116.59999847412</ele>
        <time>2013-09-04T14:04:14Z</time>
      </trkpt>
      <trkpt lat="49.21544" lon="1.64559">
        <ele>113.19999694824</ele>
        <time>2013-09-04T14:04:19Z</time>
      </trkpt>
      <trkpt lat="49.21574" lon="1.64553">
        <ele>110</ele>
        <time>2013-09-04T14:04:23Z</time>
      </trkpt>
      <trkpt lat="49.21601" lon="1.64546">
        <ele>106.80000305176</ele>
        <time>2013-09-04T14:04:27Z</time>
      </trkpt>
      <trkpt lat="49.21645" lon="1.64533">
        <ele>103.80000305176</ele>
        <time>2013-09-04T14:04:35Z</time>
      </trkpt>
      <trkpt lat="49.21658" lon="1.64528">
        <ele>103.40000152588</ele>
        <time>2013-09-04T14:04:38Z</time>
      </trkpt>
      <trkpt lat="49.21711" lon="1.64459">
        <ele>103</ele>
        <time>2013-09-04T14:04:54Z</time>
      </trkpt>
      <trkpt lat="49.21738" lon="1.64423">
        <ele>103.40000152588</ele>
        <time>2013-09-04T14:05:06Z</time>
      </trkpt>
      <trkpt lat="49.21727" lon="1.64365">
        <ele>103.59999847412</ele>
        <time>2013-09-04T14:05:23Z</time>
      </trkpt>
      <trkpt lat="49.21707" lon="1.64254">
        <ele>107.40000152588</ele>
        <time>2013-09-04T14:05:50Z</time>
      </trkpt>
      <trkpt lat="49.21708" lon="1.64192">
        <ele>110.19999694824</ele>
        <time>2013-09-04T14:06:05Z</time>
      </trkpt>
      <trkpt lat="49.21738" lon="1.64107">
        <ele>115.80000305176</ele>
        <time>2013-09-04T14:06:30Z</time>
      </trkpt>
      <trkpt lat="49.21755" lon="1.64073">
        <ele>118.80000305176</ele>
        <time>2013-09-04T14:06:42Z</time>
      </trkpt>
      <trkpt lat="49.21796" lon="1.63994">
        <ele>122.80000305176</ele>
        <time>2013-09-04T14:07:18Z</time>
      </trkpt>
      <trkpt lat="49.21811" lon="1.63952">
        <ele>126.19999694824</ele>
        <time>2013-09-04T14:07:38Z</time>
      </trkpt>
      <trkpt lat="49.21835" lon="1.63922">
        <ele>131.39999389648</ele>
        <time>2013-09-04T14:07:52Z</time>
      </trkpt>
      <trkpt lat="49.21851" lon="1.63909">
        <ele>134.39999389648</ele>
        <time>2013-09-04T14:08:01Z</time>
      </trkpt>
      <trkpt lat="49.21896" lon="1.63873">
        <ele>138.39999389648</ele>
        <time>2013-09-04T14:08:26Z</time>
      </trkpt>
      <trkpt lat="49.21941" lon="1.63796">
        <ele>141.80000305176</ele>
        <time>2013-09-04T14:08:52Z</time>
      </trkpt>
      <trkpt lat="49.21947" lon="1.6378">
        <ele>142.60000610352</ele>
        <time>2013-09-04T14:09:34Z</time>
      </trkpt>
      <trkpt lat="49.21953" lon="1.63743">
        <ele>142.60000610352</ele>
        <time>2013-09-04T14:09:41Z</time>
      </trkpt>
      <trkpt lat="49.21969" lon="1.63673">
        <ele>141.19999694824</ele>
        <time>2013-09-04T14:10:31Z</time>
      </trkpt>
      <trkpt lat="49.21971" lon="1.63666">
        <ele>141.39999389648</ele>
        <time>2013-09-04T14:10:33Z</time>
      </trkpt>
      <trkpt lat="49.22001" lon="1.63705">
        <ele>142.39999389648</ele>
        <time>2013-09-04T14:10:49Z</time>
      </trkpt>
      <trkpt lat="49.22101" lon="1.6389">
        <ele>144.19999694824</ele>
        <time>2013-09-04T14:11:40Z</time>
      </trkpt>
      <trkpt lat="49.22151" lon="1.63982">
        <ele>147.19999694824</ele>
        <time>2013-09-04T14:12:03Z</time>
      </trkpt>
      <trkpt lat="49.22182" lon="1.6404">
        <ele>143.60000610352</ele>
        <time>2013-09-04T14:12:17Z</time>
      </trkpt>
      <trkpt lat="49.22231" lon="1.64118">
        <ele>139</ele>
        <time>2013-09-04T14:12:36Z</time>
      </trkpt>
      <trkpt lat="49.22275" lon="1.64168">
        <ele>139.19999694824</ele>
        <time>2013-09-04T14:13:05Z</time>
      </trkpt>
      <trkpt lat="49.22463" lon="1.64401">
        <ele>141</ele>
        <time>2013-09-04T14:14:13Z</time>
      </trkpt>
      <trkpt lat="49.22561" lon="1.64542">
        <ele>137</ele>
        <time>2013-09-04T14:14:45Z</time>
      </trkpt>
      <trkpt lat="49.2264" lon="1.64676">
        <ele>136.80000305176</ele>
        <time>2013-09-04T14:15:13Z</time>
      </trkpt>
      <trkpt lat="49.22754" lon="1.64843">
        <ele>133.60000610352</ele>
        <time>2013-09-04T14:15:44Z</time>
      </trkpt>
      <trkpt lat="49.22826" lon="1.64942">
        <ele>134</ele>
        <time>2013-09-04T14:16:06Z</time>
      </trkpt>
      <trkpt lat="49.23011" lon="1.65055">
        <ele>139.60000610352</ele>
        <time>2013-09-04T14:16:56Z</time>
      </trkpt>
      <trkpt lat="49.23224" lon="1.65186">
        <ele>141.39999389648</ele>
        <time>2013-09-04T14:17:42Z</time>
      </trkpt>
      <trkpt lat="49.23316" lon="1.65279">
        <ele>143</ele>
        <time>2013-09-04T14:18:06Z</time>
      </trkpt>
      <trkpt lat="49.23392" lon="1.65359">
        <ele>140</ele>
        <time>2013-09-04T14:18:26Z</time>
      </trkpt>
      <trkpt lat="49.23405" lon="1.65372">
        <ele>143.60000610352</ele>
        <time>2013-09-04T14:18:29Z</time>
      </trkpt>
      <trkpt lat="49.23432" lon="1.65405">
        <ele>142.39999389648</ele>
        <time>2013-09-04T14:18:36Z</time>
      </trkpt>
      <trkpt lat="49.23473" lon="1.65453">
        <ele>141.80000305176</ele>
        <time>2013-09-04T14:18:46Z</time>
      </trkpt>
      <trkpt lat="49.23532" lon="1.65552">
        <ele>140</ele>
        <time>2013-09-04T14:19:02Z</time>
      </trkpt>
      <trkpt lat="49.23701" lon="1.65856">
        <ele>136.60000610352</ele>
        <time>2013-09-04T14:19:51Z</time>
      </trkpt>
      <trkpt lat="49.23719" lon="1.6588">
        <ele>135</ele>
        <time>2013-09-04T14:19:57Z</time>
      </trkpt>
      <trkpt lat="49.23715" lon="1.65898">
        <ele>135.39999389648</ele>
        <time>2013-09-04T14:20:04Z</time>
      </trkpt>
      <trkpt lat="49.23713" lon="1.65934">
        <ele>135.60000610352</ele>
        <time>2013-09-04T14:38:42Z</time>
      </trkpt>
      <trkpt lat="49.23765" lon="1.66054">
        <ele>141.19999694824</ele>
        <time>2013-09-04T14:39:21Z</time>
      </trkpt>
      <trkpt lat="49.23782" lon="1.66085">
        <ele>141</ele>
        <time>2013-09-04T14:39:32Z</time>
      </trkpt>
      <trkpt lat="49.2392" lon="1.6651">
        <ele>142</ele>
        <time>2013-09-04T14:41:26Z</time>
      </trkpt>
      <trkpt lat="49.23957" lon="1.66751">
        <ele>138.39999389648</ele>
        <time>2013-09-04T14:42:09Z</time>
      </trkpt>
      <trkpt lat="49.24009" lon="1.67005">
        <ele>133.80000305176</ele>
        <time>2013-09-04T14:42:40Z</time>
      </trkpt>
      <trkpt lat="49.24055" lon="1.67261">
        <ele>128.19999694824</ele>
        <time>2013-09-04T14:43:08Z</time>
      </trkpt>
      <trkpt lat="49.24064" lon="1.67311">
        <ele>127.19999694824</ele>
        <time>2013-09-04T14:43:14Z</time>
      </trkpt>
      <trkpt lat="49.24062" lon="1.67342">
        <ele>127</ele>
        <time>2013-09-04T14:43:18Z</time>
      </trkpt>
      <trkpt lat="49.24038" lon="1.67436">
        <ele>125.59999847412</ele>
        <time>2013-09-04T14:43:31Z</time>
      </trkpt>
      <trkpt lat="49.23994" lon="1.67619">
        <ele>124.80000305176</ele>
        <time>2013-09-04T14:43:56Z</time>
      </trkpt>
      <trkpt lat="49.24008" lon="1.67788">
        <ele>126.40000152588</ele>
        <time>2013-09-04T14:44:33Z</time>
      </trkpt>
      <trkpt lat="49.24059" lon="1.67809">
        <ele>125</ele>
        <time>2013-09-04T14:44:44Z</time>
      </trkpt>
      <trkpt lat="49.24142" lon="1.67843">
        <ele>121.80000305176</ele>
        <time>2013-09-04T14:44:54Z</time>
      </trkpt>
      <trkpt lat="49.24193" lon="1.67863">
        <ele>118.80000305176</ele>
        <time>2013-09-04T14:44:59Z</time>
      </trkpt>
      <trkpt lat="49.24229" lon="1.67878">
        <ele>115</ele>
        <time>2013-09-04T14:45:03Z</time>
      </trkpt>
      <trkpt lat="49.24253" lon="1.67887">
        <ele>111</ele>
        <time>2013-09-04T14:45:07Z</time>
      </trkpt>
      <trkpt lat="49.24289" lon="1.67901">
        <ele>106.59999847412</ele>
        <time>2013-09-04T14:45:14Z</time>
      </trkpt>
      <trkpt lat="49.24296" lon="1.67904">
        <ele>106.40000152588</ele>
        <time>2013-09-04T14:45:15Z</time>
      </trkpt>
      <trkpt lat="49.24325" lon="1.67915">
        <ele>103.40000152588</ele>
        <time>2013-09-04T14:45:19Z</time>
      </trkpt>
      <trkpt lat="49.2435" lon="1.67924">
        <ele>100</ele>
        <time>2013-09-04T14:45:24Z</time>
      </trkpt>
      <trkpt lat="49.24354" lon="1.6796">
        <ele>98.199996948242</ele>
        <time>2013-09-04T14:45:33Z</time>
      </trkpt>
      <trkpt lat="49.24373" lon="1.6812">
        <ele>95.599998474121</ele>
        <time>2013-09-04T14:46:05Z</time>
      </trkpt>
      <trkpt lat="49.24428" lon="1.68155">
        <ele>92.599998474121</ele>
        <time>2013-09-04T14:46:14Z</time>
      </trkpt>
      <trkpt lat="49.24477" lon="1.6818">
        <ele>89.400001525879</ele>
        <time>2013-09-04T14:46:21Z</time>
      </trkpt>
      <trkpt lat="49.24491" lon="1.68224">
        <ele>86.199996948242</ele>
        <time>2013-09-04T14:46:30Z</time>
      </trkpt>
      <trkpt lat="49.24489" lon="1.68231">
        <ele>86.400001525879</ele>
        <time>2013-09-04T14:46:31Z</time>
      </trkpt>
      <trkpt lat="49.24487" lon="1.68237">
        <ele>86.800003051758</ele>
        <time>2013-09-04T14:46:32Z</time>
      </trkpt>
      <trkpt lat="49.24481" lon="1.68264">
        <ele>88</ele>
        <time>2013-09-04T14:46:36Z</time>
      </trkpt>
      <trkpt lat="49.2444" lon="1.68454">
        <ele>91.400001525879</ele>
        <time>2013-09-04T14:47:06Z</time>
      </trkpt>
      <trkpt lat="49.24354" lon="1.68866">
        <ele>91.599998474121</ele>
        <time>2013-09-04T14:48:08Z</time>
      </trkpt>
      <trkpt lat="49.24324" lon="1.69002">
        <ele>90.199996948242</ele>
        <time>2013-09-04T14:48:25Z</time>
      </trkpt>
      <trkpt lat="49.24254" lon="1.69193">
        <ele>84.400001525879</ele>
        <time>2013-09-04T14:48:43Z</time>
      </trkpt>
      <trkpt lat="49.2423" lon="1.69303">
        <ele>79.199996948242</ele>
        <time>2013-09-04T14:48:54Z</time>
      </trkpt>
      <trkpt lat="49.24205" lon="1.69478">
        <ele>73.599998474121</ele>
        <time>2013-09-04T14:49:11Z</time>
      </trkpt>
      <trkpt lat="49.24193" lon="1.69634">
        <ele>70.199996948242</ele>
        <time>2013-09-04T14:49:23Z</time>
      </trkpt>
      <trkpt lat="49.24188" lon="1.69701">
        <ele>67.199996948242</ele>
        <time>2013-09-04T14:49:28Z</time>
      </trkpt>
      <trkpt lat="49.24184" lon="1.69768">
        <ele>64.199996948242</ele>
        <time>2013-09-04T14:49:33Z</time>
      </trkpt>
      <trkpt lat="49.24248" lon="1.69942">
        <ele>58</ele>
        <time>2013-09-04T14:49:47Z</time>
      </trkpt>
      <trkpt lat="49.24263" lon="1.69981">
        <ele>54.599998474121</ele>
        <time>2013-09-04T14:49:53Z</time>
      </trkpt>
      <trkpt lat="49.24324" lon="1.70004">
        <ele>52.200000762939</ele>
        <time>2013-09-04T14:50:08Z</time>
      </trkpt>
      <trkpt lat="49.24392" lon="1.70098">
        <ele>49.400001525879</ele>
        <time>2013-09-04T14:50:39Z</time>
      </trkpt>
      <trkpt lat="49.24392" lon="1.70105">
        <ele>49.400001525879</ele>
        <time>2013-09-04T14:50:43Z</time>
      </trkpt>
      <trkpt lat="49.24396" lon="1.70108">
        <ele>49.200000762939</ele>
        <time>2013-09-04T14:50:47Z</time>
      </trkpt>
      <trkpt lat="49.24423" lon="1.70127">
        <ele>49.200000762939</ele>
        <time>2013-09-04T14:50:58Z</time>
      </trkpt>
      <trkpt lat="49.24583" lon="1.70365">
        <ele>48.400001525879</ele>
        <time>2013-09-04T14:51:39Z</time>
      </trkpt>
      <trkpt lat="49.24867" lon="1.70881">
        <ele>47.599998474121</ele>
        <time>2013-09-04T14:52:53Z</time>
      </trkpt>
      <trkpt lat="49.24978" lon="1.71064">
        <ele>48.200000762939</ele>
        <time>2013-09-04T14:53:21Z</time>
      </trkpt>
      <trkpt lat="49.25134" lon="1.71193">
        <ele>49.200000762939</ele>
        <time>2013-09-04T14:53:52Z</time>
      </trkpt>
      <trkpt lat="49.25308" lon="1.71222">
        <ele>50.599998474121</ele>
        <time>2013-09-04T14:54:19Z</time>
      </trkpt>
      <trkpt lat="49.25363" lon="1.71214">
        <ele>49.599998474121</ele>
        <time>2013-09-04T14:54:28Z</time>
      </trkpt>
      <trkpt lat="49.25417" lon="1.71207">
        <ele>50.400001525879</ele>
        <time>2013-09-04T14:54:44Z</time>
      </trkpt>
      <trkpt lat="49.2544" lon="1.71312">
        <ele>52</ele>
        <time>2013-09-04T14:55:07Z</time>
      </trkpt>
      <trkpt lat="49.2546" lon="1.71373">
        <ele>54.200000762939</ele>
        <time>2013-09-04T14:55:19Z</time>
      </trkpt>
      <trkpt lat="49.25468" lon="1.71396">
        <ele>55.200000762939</ele>
        <time>2013-09-04T14:55:23Z</time>
      </trkpt>
      <trkpt lat="49.25524" lon="1.71473">
        <ele>59.799999237061</ele>
        <time>2013-09-04T14:55:39Z</time>
      </trkpt>
      <trkpt lat="49.2554" lon="1.7149">
        <ele>60.799999237061</ele>
        <time>2013-09-04T14:55:43Z</time>
      </trkpt>
      <trkpt lat="49.25594" lon="1.71547">
        <ele>64.199996948242</ele>
        <time>2013-09-04T14:56:01Z</time>
      </trkpt>
      <trkpt lat="49.256" lon="1.7158">
        <ele>66</ele>
        <time>2013-09-04T14:56:40Z</time>
      </trkpt>
      <trkpt lat="49.25646" lon="1.71719">
        <ele>71.599998474121</ele>
        <time>2013-09-04T14:57:26Z</time>
      </trkpt>
      <trkpt lat="49.2567" lon="1.71795">
        <ele>75</ele>
        <time>2013-09-04T14:57:51Z</time>
      </trkpt>
      <trkpt lat="49.25699" lon="1.71896">
        <ele>80</ele>
        <time>2013-09-04T14:58:19Z</time>
      </trkpt>
      <trkpt lat="49.2573" lon="1.71992">
        <ele>86.199996948242</ele>
        <time>2013-09-04T14:58:46Z</time>
      </trkpt>
      <trkpt lat="49.25759" lon="1.72085">
        <ele>91</ele>
        <time>2013-09-04T14:59:12Z</time>
      </trkpt>
      <trkpt lat="49.25762" lon="1.72127">
        <ele>94.199996948242</ele>
        <time>2013-09-04T14:59:56Z</time>
      </trkpt>
      <trkpt lat="49.25743" lon="1.72126">
        <ele>94.400001525879</ele>
        <time>2013-09-04T15:00:03Z</time>
      </trkpt>
      <trkpt lat="49.25704" lon="1.72119">
        <ele>96.599998474121</ele>
        <time>2013-09-04T15:00:17Z</time>
      </trkpt>
      <trkpt lat="49.25638" lon="1.72107">
        <ele>100.80000305176</ele>
        <time>2013-09-04T15:00:41Z</time>
      </trkpt>
      <trkpt lat="49.25606" lon="1.7211">
        <ele>103.80000305176</ele>
        <time>2013-09-04T15:00:53Z</time>
      </trkpt>
      <trkpt lat="49.25542" lon="1.72141">
        <ele>108</ele>
        <time>2013-09-04T15:01:17Z</time>
      </trkpt>
      <trkpt lat="49.25493" lon="1.72244">
        <ele>113.19999694824</ele>
        <time>2013-09-04T15:01:44Z</time>
      </trkpt>
      <trkpt lat="49.25465" lon="1.72373">
        <ele>116.80000305176</ele>
        <time>2013-09-04T15:02:48Z</time>
      </trkpt>
      <trkpt lat="49.25474" lon="1.72458">
        <ele>119.80000305176</ele>
        <time>2013-09-04T15:03:06Z</time>
      </trkpt>
      <trkpt lat="49.2548" lon="1.72491">
        <ele>121.59999847412</ele>
        <time>2013-09-04T15:03:15Z</time>
      </trkpt>
      <trkpt lat="49.25491" lon="1.72563">
        <ele>125.80000305176</ele>
        <time>2013-09-04T15:03:36Z</time>
      </trkpt>
      <trkpt lat="49.25503" lon="1.72642">
        <ele>129.39999389648</ele>
        <time>2013-09-04T15:03:56Z</time>
      </trkpt>
      <trkpt lat="49.25518" lon="1.72727">
        <ele>133.19999694824</ele>
        <time>2013-09-04T15:04:19Z</time>
      </trkpt>
      <trkpt lat="49.25528" lon="1.7281">
        <ele>136.39999389648</ele>
        <time>2013-09-04T15:07:54Z</time>
      </trkpt>
      <trkpt lat="49.25533" lon="1.72916">
        <ele>138</ele>
        <time>2013-09-04T15:08:16Z</time>
      </trkpt>
      <trkpt lat="49.25535" lon="1.72937">
        <ele>138</ele>
        <time>2013-09-04T15:08:22Z</time>
      </trkpt>
      <trkpt lat="49.25512" lon="1.73089">
        <ele>137.39999389648</ele>
        <time>2013-09-04T15:08:54Z</time>
      </trkpt>
      <trkpt lat="49.25472" lon="1.73296">
        <ele>136.80000305176</ele>
        <time>2013-09-04T15:09:30Z</time>
      </trkpt>
      <trkpt lat="49.2544" lon="1.7348">
        <ele>136.39999389648</ele>
        <time>2013-09-04T15:10:52Z</time>
      </trkpt>
      <trkpt lat="49.25274" lon="1.74353">
        <ele>137</ele>
        <time>2013-09-04T15:13:28Z</time>
      </trkpt>
      <trkpt lat="49.25246" lon="1.74545">
        <ele>135.80000305176</ele>
        <time>2013-09-04T15:13:52Z</time>
      </trkpt>
      <trkpt lat="49.25232" lon="1.74785">
        <ele>133</ele>
        <time>2013-09-04T15:14:19Z</time>
      </trkpt>
      <trkpt lat="49.25229" lon="1.74877">
        <ele>131.80000305176</ele>
        <time>2013-09-04T15:14:29Z</time>
      </trkpt>
      <trkpt lat="49.25169" lon="1.74978">
        <ele>132</ele>
        <time>2013-09-04T15:14:45Z</time>
      </trkpt>
      <trkpt lat="49.25143" lon="1.7495">
        <ele>130.19999694824</ele>
        <time>2013-09-04T15:14:53Z</time>
      </trkpt>
      <trkpt lat="49.2508" lon="1.74871">
        <ele>128</ele>
        <time>2013-09-04T15:15:07Z</time>
      </trkpt>
      <trkpt lat="49.25048" lon="1.74835">
        <ele>124.80000305176</ele>
        <time>2013-09-04T15:15:14Z</time>
      </trkpt>
      <trkpt lat="49.25005" lon="1.74786">
        <ele>121.59999847412</ele>
        <time>2013-09-04T15:15:22Z</time>
      </trkpt>
      <trkpt lat="49.24978" lon="1.74757">
        <ele>118.59999847412</ele>
        <time>2013-09-04T15:15:27Z</time>
      </trkpt>
      <trkpt lat="49.24942" lon="1.7471">
        <ele>115</ele>
        <time>2013-09-04T15:15:34Z</time>
      </trkpt>
      <trkpt lat="49.249" lon="1.74665">
        <ele>110.19999694824</ele>
        <time>2013-09-04T15:15:42Z</time>
      </trkpt>
      <trkpt lat="49.24869" lon="1.74625">
        <ele>107</ele>
        <time>2013-09-04T15:15:48Z</time>
      </trkpt>
      <trkpt lat="49.24837" lon="1.74591">
        <ele>103.59999847412</ele>
        <time>2013-09-04T15:15:54Z</time>
      </trkpt>
      <trkpt lat="49.24805" lon="1.74552">
        <ele>100.59999847412</ele>
        <time>2013-09-04T15:16:00Z</time>
      </trkpt>
      <trkpt lat="49.24773" lon="1.74512">
        <ele>97.400001525879</ele>
        <time>2013-09-04T15:16:05Z</time>
      </trkpt>
      <trkpt lat="49.24724" lon="1.74467">
        <ele>94</ele>
        <time>2013-09-04T15:16:11Z</time>
      </trkpt>
      <trkpt lat="49.2466" lon="1.74432">
        <ele>91</ele>
        <time>2013-09-04T15:16:18Z</time>
      </trkpt>
      <trkpt lat="49.24584" lon="1.7443">
        <ele>86.800003051758</ele>
        <time>2013-09-04T15:16:26Z</time>
      </trkpt>
      <trkpt lat="49.24521" lon="1.7443">
        <ele>83.599998474121</ele>
        <time>2013-09-04T15:16:33Z</time>
      </trkpt>
      <trkpt lat="49.24408" lon="1.7437">
        <ele>78.800003051758</ele>
        <time>2013-09-04T15:16:44Z</time>
      </trkpt>
      <trkpt lat="49.24354" lon="1.74341">
        <ele>75.800003051758</ele>
        <time>2013-09-04T15:16:49Z</time>
      </trkpt>
      <trkpt lat="49.2431" lon="1.74318">
        <ele>72.800003051758</ele>
        <time>2013-09-04T15:16:53Z</time>
      </trkpt>
      <trkpt lat="49.24256" lon="1.7429">
        <ele>69.800003051758</ele>
        <time>2013-09-04T15:16:58Z</time>
      </trkpt>
      <trkpt lat="49.24212" lon="1.74264">
        <ele>66.599998474121</ele>
        <time>2013-09-04T15:17:03Z</time>
      </trkpt>
      <trkpt lat="49.24077" lon="1.74185">
        <ele>63.799999237061</ele>
        <time>2013-09-04T15:17:35Z</time>
      </trkpt>
      <trkpt lat="49.24" lon="1.74167">
        <ele>64.599998474121</ele>
        <time>2013-09-04T15:28:56Z</time>
      </trkpt>
      <trkpt lat="49.23933" lon="1.74145">
        <ele>66.800003051758</ele>
        <time>2013-09-04T15:29:19Z</time>
      </trkpt>
      <trkpt lat="49.23934" lon="1.74112">
        <ele>66.800003051758</ele>
        <time>2013-09-04T15:29:25Z</time>
      </trkpt>
      <trkpt lat="49.23949" lon="1.73761">
        <ele>66.599998474121</ele>
        <time>2013-09-04T15:30:15Z</time>
      </trkpt>
      <trkpt lat="49.23843" lon="1.73593">
        <ele>72.800003051758</ele>
        <time>2013-09-04T15:30:55Z</time>
      </trkpt>
      <trkpt lat="49.23772" lon="1.73501">
        <ele>76</ele>
        <time>2013-09-04T15:31:19Z</time>
      </trkpt>
      <trkpt lat="49.23763" lon="1.73478">
        <ele>75.400001525879</ele>
        <time>2013-09-04T15:31:22Z</time>
      </trkpt>
      <trkpt lat="49.23767" lon="1.73344">
        <ele>72</ele>
        <time>2013-09-04T15:31:34Z</time>
      </trkpt>
      <trkpt lat="49.23614" lon="1.73179">
        <ele>69</ele>
        <time>2013-09-04T15:32:05Z</time>
      </trkpt>
      <trkpt lat="49.23557" lon="1.73116">
        <ele>70.199996948242</ele>
        <time>2013-09-04T15:32:19Z</time>
      </trkpt>
      <trkpt lat="49.23494" lon="1.73048">
        <ele>75.400001525879</ele>
        <time>2013-09-04T15:32:38Z</time>
      </trkpt>
      <trkpt lat="49.23463" lon="1.73013">
        <ele>78.400001525879</ele>
        <time>2013-09-04T15:32:48Z</time>
      </trkpt>
      <trkpt lat="49.23431" lon="1.72981">
        <ele>81.400001525879</ele>
        <time>2013-09-04T15:32:59Z</time>
      </trkpt>
      <trkpt lat="49.23364" lon="1.72917">
        <ele>86.599998474121</ele>
        <time>2013-09-04T15:33:28Z</time>
      </trkpt>
      <trkpt lat="49.23332" lon="1.7288">
        <ele>90.400001525879</ele>
        <time>2013-09-04T15:33:48Z</time>
      </trkpt>
      <trkpt lat="49.23315" lon="1.72858">
        <ele>93.400001525879</ele>
        <time>2013-09-04T15:33:59Z</time>
      </trkpt>
      <trkpt lat="49.2329" lon="1.7283">
        <ele>96.400001525879</ele>
        <time>2013-09-04T15:34:13Z</time>
      </trkpt>
      <trkpt lat="49.23252" lon="1.72784">
        <ele>101.80000305176</ele>
        <time>2013-09-04T15:34:37Z</time>
      </trkpt>
      <trkpt lat="49.23212" lon="1.7272">
        <ele>107.19999694824</ele>
        <time>2013-09-04T15:35:06Z</time>
      </trkpt>
      <trkpt lat="49.23156" lon="1.72651">
        <ele>111.59999847412</ele>
        <time>2013-09-04T15:35:36Z</time>
      </trkpt>
      <trkpt lat="49.23137" lon="1.72633">
        <ele>111.40000152588</ele>
        <time>2013-09-04T15:35:47Z</time>
      </trkpt>
      <trkpt lat="49.23071" lon="1.72579">
        <ele>108.59999847412</ele>
        <time>2013-09-04T15:36:13Z</time>
      </trkpt>
      <trkpt lat="49.23041" lon="1.72544">
        <ele>106</ele>
        <time>2013-09-04T15:36:21Z</time>
      </trkpt>
      <trkpt lat="49.2302" lon="1.72519">
        <ele>104</ele>
        <time>2013-09-04T15:36:27Z</time>
      </trkpt>
      <trkpt lat="49.22991" lon="1.72472">
        <ele>100.80000305176</ele>
        <time>2013-09-04T15:36:36Z</time>
      </trkpt>
      <trkpt lat="49.22966" lon="1.72427">
        <ele>97.599998474121</ele>
        <time>2013-09-04T15:36:42Z</time>
      </trkpt>
      <trkpt lat="49.22939" lon="1.72378">
        <ele>93.400001525879</ele>
        <time>2013-09-04T15:36:47Z</time>
      </trkpt>
      <trkpt lat="49.22908" lon="1.72325">
        <ele>90</ele>
        <time>2013-09-04T15:36:52Z</time>
      </trkpt>
      <trkpt lat="49.22861" lon="1.72221">
        <ele>88.400001525879</ele>
        <time>2013-09-04T15:37:04Z</time>
      </trkpt>
      <trkpt lat="49.22781" lon="1.72056">
        <ele>90.800003051758</ele>
        <time>2013-09-04T15:37:34Z</time>
      </trkpt>
      <trkpt lat="49.22684" lon="1.71927">
        <ele>89.400001525879</ele>
        <time>2013-09-04T15:38:16Z</time>
      </trkpt>
      <trkpt lat="49.22539" lon="1.71844">
        <ele>88.800003051758</ele>
        <time>2013-09-04T15:39:04Z</time>
      </trkpt>
      <trkpt lat="49.22432" lon="1.71799">
        <ele>82.199996948242</ele>
        <time>2013-09-04T15:39:26Z</time>
      </trkpt>
      <trkpt lat="49.22362" lon="1.71762">
        <ele>76.800003051758</ele>
        <time>2013-09-04T15:39:35Z</time>
      </trkpt>
      <trkpt lat="49.22324" lon="1.71741">
        <ele>75.599998474121</ele>
        <time>2013-09-04T15:39:40Z</time>
      </trkpt>
      <trkpt lat="49.22303" lon="1.71686">
        <ele>74.599998474121</ele>
        <time>2013-09-04T15:39:55Z</time>
      </trkpt>
      <trkpt lat="49.22281" lon="1.71677">
        <ele>74.599998474121</ele>
        <time>2013-09-04T15:40:58Z</time>
      </trkpt>
      <trkpt lat="49.22263" lon="1.71669">
        <ele>75.199996948242</ele>
        <time>2013-09-04T15:41:06Z</time>
      </trkpt>
      <trkpt lat="49.22226" lon="1.71652">
        <ele>76.800003051758</ele>
        <time>2013-09-04T15:41:20Z</time>
      </trkpt>
      <trkpt lat="49.22176" lon="1.71657">
        <ele>80</ele>
        <time>2013-09-04T15:41:37Z</time>
      </trkpt>
      <trkpt lat="49.22083" lon="1.71765">
        <ele>82.599998474121</ele>
        <time>2013-09-04T15:42:13Z</time>
      </trkpt>
      <trkpt lat="49.21942" lon="1.72116">
        <ele>84.800003051758</ele>
        <time>2013-09-04T15:43:23Z</time>
      </trkpt>
      <trkpt lat="49.21816" lon="1.724">
        <ele>93.199996948242</ele>
        <time>2013-09-04T15:44:32Z</time>
      </trkpt>
      <trkpt lat="49.21746" lon="1.72405">
        <ele>95.400001525879</ele>
        <time>2013-09-04T15:44:57Z</time>
      </trkpt>
      <trkpt lat="49.21655" lon="1.72377">
        <ele>99.800003051758</ele>
        <time>2013-09-04T15:45:30Z</time>
      </trkpt>
      <trkpt lat="49.21597" lon="1.72445">
        <ele>105.40000152588</ele>
        <time>2013-09-04T15:46:06Z</time>
      </trkpt>
      <trkpt lat="49.21587" lon="1.72478">
        <ele>108.40000152588</ele>
        <time>2013-09-04T15:46:17Z</time>
      </trkpt>
      <trkpt lat="49.21581" lon="1.72513">
        <ele>111.40000152588</ele>
        <time>2013-09-04T15:46:29Z</time>
      </trkpt>
      <trkpt lat="49.2158" lon="1.72552">
        <ele>115.19999694824</ele>
        <time>2013-09-04T15:46:43Z</time>
      </trkpt>
      <trkpt lat="49.21576" lon="1.72597">
        <ele>119.80000305176</ele>
        <time>2013-09-04T15:47:00Z</time>
      </trkpt>
      <trkpt lat="49.21557" lon="1.72642">
        <ele>124.19999694824</ele>
        <time>2013-09-04T15:47:17Z</time>
      </trkpt>
      <trkpt lat="49.21547" lon="1.72672">
        <ele>127.40000152588</ele>
        <time>2013-09-04T15:47:28Z</time>
      </trkpt>
      <trkpt lat="49.21527" lon="1.72708">
        <ele>130.60000610352</ele>
        <time>2013-09-04T15:47:43Z</time>
      </trkpt>
      <trkpt lat="49.21436" lon="1.72775">
        <ele>134.80000305176</ele>
        <time>2013-09-04T15:48:22Z</time>
      </trkpt>
      <trkpt lat="49.21331" lon="1.72837">
        <ele>138.80000305176</ele>
        <time>2013-09-04T15:48:56Z</time>
      </trkpt>
      <trkpt lat="49.21007" lon="1.73016">
        <ele>138.60000610352</ele>
        <time>2013-09-04T16:00:09Z</time>
      </trkpt>
      <trkpt lat="49.20947" lon="1.73051">
        <ele>137.19999694824</ele>
        <time>2013-09-04T16:00:26Z</time>
      </trkpt>
      <trkpt lat="49.20813" lon="1.73129">
        <ele>133.19999694824</ele>
        <time>2013-09-04T16:01:00Z</time>
      </trkpt>
      <trkpt lat="49.20737" lon="1.73307">
        <ele>125.80000305176</ele>
        <time>2013-09-04T16:01:31Z</time>
      </trkpt>
      <trkpt lat="49.20713" lon="1.73351">
        <ele>122.59999847412</ele>
        <time>2013-09-04T16:01:41Z</time>
      </trkpt>
      <trkpt lat="49.20688" lon="1.73355">
        <ele>119.19999694824</ele>
        <time>2013-09-04T16:01:46Z</time>
      </trkpt>
      <trkpt lat="49.20664" lon="1.73359">
        <ele>115.59999847412</ele>
        <time>2013-09-04T16:01:51Z</time>
      </trkpt>
      <trkpt lat="49.2066" lon="1.7336">
        <ele>114.80000305176</ele>
        <time>2013-09-04T16:01:52Z</time>
      </trkpt>
      <trkpt lat="49.20644" lon="1.73365">
        <ele>111.80000305176</ele>
        <time>2013-09-04T16:01:56Z</time>
      </trkpt>
      <trkpt lat="49.20629" lon="1.73369">
        <ele>109.80000305176</ele>
        <time>2013-09-04T16:01:59Z</time>
      </trkpt>
      <trkpt lat="49.20611" lon="1.73377">
        <ele>106.80000305176</ele>
        <time>2013-09-04T16:02:03Z</time>
      </trkpt>
      <trkpt lat="49.20602" lon="1.73385">
        <ele>103.59999847412</ele>
        <time>2013-09-04T16:02:06Z</time>
      </trkpt>
      <trkpt lat="49.20594" lon="1.73395">
        <ele>100.40000152588</ele>
        <time>2013-09-04T16:02:10Z</time>
      </trkpt>
      <trkpt lat="49.20598" lon="1.73456">
        <ele>97.400001525879</ele>
        <time>2013-09-04T16:03:00Z</time>
      </trkpt>
      <trkpt lat="49.20617" lon="1.73522">
        <ele>98.400001525879</ele>
        <time>2013-09-04T16:03:17Z</time>
      </trkpt>
      <trkpt lat="49.20646" lon="1.73613">
        <ele>99.199996948242</ele>
        <time>2013-09-04T16:03:33Z</time>
      </trkpt>
      <trkpt lat="49.20658" lon="1.73678">
        <ele>99.599998474121</ele>
        <time>2013-09-04T16:03:44Z</time>
      </trkpt>
      <trkpt lat="49.20666" lon="1.73723">
        <ele>99.400001525879</ele>
        <time>2013-09-04T16:03:51Z</time>
      </trkpt>
      <trkpt lat="49.20644" lon="1.73864">
        <ele>96</ele>
        <time>2013-09-04T16:04:17Z</time>
      </trkpt>
      <trkpt lat="49.20633" lon="1.73893">
        <ele>93</ele>
        <time>2013-09-04T16:04:24Z</time>
      </trkpt>
      <trkpt lat="49.20619" lon="1.73953">
        <ele>89.599998474121</ele>
        <time>2013-09-04T16:04:42Z</time>
      </trkpt>
      <trkpt lat="49.20591" lon="1.73959">
        <ele>86.400001525879</ele>
        <time>2013-09-04T16:04:51Z</time>
      </trkpt>
      <trkpt lat="49.20575" lon="1.73969">
        <ele>83.199996948242</ele>
        <time>2013-09-04T16:04:56Z</time>
      </trkpt>
      <trkpt lat="49.20572" lon="1.73973">
        <ele>83</ele>
        <time>2013-09-04T16:04:57Z</time>
      </trkpt>
      <trkpt lat="49.20549" lon="1.73986">
        <ele>79.599998474121</ele>
        <time>2013-09-04T16:05:02Z</time>
      </trkpt>
      <trkpt lat="49.20504" lon="1.74014">
        <ele>76.400001525879</ele>
        <time>2013-09-04T16:05:11Z</time>
      </trkpt>
      <trkpt lat="49.20442" lon="1.73931">
        <ele>75.800003051758</ele>
        <time>2013-09-04T16:05:30Z</time>
      </trkpt>
      <trkpt lat="49.20322" lon="1.73814">
        <ele>78.400001525879</ele>
        <time>2013-09-04T16:06:12Z</time>
      </trkpt>
      <trkpt lat="49.20281" lon="1.73863">
        <ele>80.199996948242</ele>
        <time>2013-09-04T16:06:25Z</time>
      </trkpt>
      <trkpt lat="49.20196" lon="1.73962">
        <ele>83.199996948242</ele>
        <time>2013-09-04T16:06:54Z</time>
      </trkpt>
      <trkpt lat="49.20185" lon="1.73974">
        <ele>83.400001525879</ele>
        <time>2013-09-04T16:07:06Z</time>
      </trkpt>
      <trkpt lat="49.20185" lon="1.73973">
        <ele>83.400001525879</ele>
        <time>2013-09-04T16:07:08Z</time>
      </trkpt>
      <trkpt lat="49.20162" lon="1.7397">
        <ele>83.800003051758</ele>
        <time>2013-09-04T16:07:18Z</time>
      </trkpt>
      <trkpt lat="49.20055" lon="1.73958">
        <ele>89</ele>
        <time>2013-09-04T16:07:50Z</time>
      </trkpt>
      <trkpt lat="49.20023" lon="1.73954">
        <ele>92.199996948242</ele>
        <time>2013-09-04T16:07:59Z</time>
      </trkpt>
      <trkpt lat="49.19998" lon="1.73946">
        <ele>95.400001525879</ele>
        <time>2013-09-04T16:08:06Z</time>
      </trkpt>
      <trkpt lat="49.19976" lon="1.7394">
        <ele>98.400001525879</ele>
        <time>2013-09-04T16:08:12Z</time>
      </trkpt>
      <trkpt lat="49.19947" lon="1.73925">
        <ele>101.40000152588</ele>
        <time>2013-09-04T16:08:21Z</time>
      </trkpt>
      <trkpt lat="49.19914" lon="1.73905">
        <ele>104.59999847412</ele>
        <time>2013-09-04T16:08:33Z</time>
      </trkpt>
      <trkpt lat="49.19887" lon="1.73897">
        <ele>107.59999847412</ele>
        <time>2013-09-04T16:08:44Z</time>
      </trkpt>
      <trkpt lat="49.19866" lon="1.73892">
        <ele>110.80000305176</ele>
        <time>2013-09-04T16:08:53Z</time>
      </trkpt>
      <trkpt lat="49.19834" lon="1.73881">
        <ele>113.80000305176</ele>
        <time>2013-09-04T16:09:08Z</time>
      </trkpt>
      <trkpt lat="49.19759" lon="1.73853">
        <ele>119.40000152588</ele>
        <time>2013-09-04T16:09:37Z</time>
      </trkpt>
      <trkpt lat="49.19661" lon="1.73806">
        <ele>124.80000305176</ele>
        <time>2013-09-04T16:10:12Z</time>
      </trkpt>
      <trkpt lat="49.19616" lon="1.73776">
        <ele>128</ele>
        <time>2013-09-04T16:10:28Z</time>
      </trkpt>
      <trkpt lat="49.19579" lon="1.73753">
        <ele>131</ele>
        <time>2013-09-04T16:10:41Z</time>
      </trkpt>
      <trkpt lat="49.19329" lon="1.73684">
        <ele>132.39999389648</ele>
        <time>2013-09-04T16:12:11Z</time>
      </trkpt>
      <trkpt lat="49.19263" lon="1.73622">
        <ele>128.19999694824</ele>
        <time>2013-09-04T16:17:22Z</time>
      </trkpt>
      <trkpt lat="49.1926" lon="1.73619">
        <ele>128</ele>
        <time>2013-09-04T16:17:23Z</time>
      </trkpt>
      <trkpt lat="49.19211" lon="1.73573">
        <ele>126.19999694824</ele>
        <time>2013-09-04T16:17:32Z</time>
      </trkpt>
      <trkpt lat="49.19132" lon="1.73477">
        <ele>124.59999847412</ele>
        <time>2013-09-04T16:17:46Z</time>
      </trkpt>
      <trkpt lat="49.19079" lon="1.73417">
        <ele>127.19999694824</ele>
        <time>2013-09-04T16:17:59Z</time>
      </trkpt>
      <trkpt lat="49.18941" lon="1.73337">
        <ele>129.39999389648</ele>
        <time>2013-09-04T16:18:33Z</time>
      </trkpt>
      <trkpt lat="49.18906" lon="1.73331">
        <ele>129.39999389648</ele>
        <time>2013-09-04T16:18:41Z</time>
      </trkpt>
      <trkpt lat="49.18834" lon="1.73327">
        <ele>128.39999389648</ele>
        <time>2013-09-04T16:18:55Z</time>
      </trkpt>
      <trkpt lat="49.1854" lon="1.73299">
        <ele>132.19999694824</ele>
        <time>2013-09-04T16:19:55Z</time>
      </trkpt>
      <trkpt lat="49.18488" lon="1.73273">
        <ele>135.39999389648</ele>
        <time>2013-09-04T16:20:10Z</time>
      </trkpt>
      <trkpt lat="49.18432" lon="1.73226">
        <ele>139</ele>
        <time>2013-09-04T16:20:36Z</time>
      </trkpt>
      <trkpt lat="49.18423" lon="1.73216">
        <ele>137.39999389648</ele>
        <time>2013-09-04T16:21:02Z</time>
      </trkpt>
      <trkpt lat="49.18353" lon="1.73197">
        <ele>142.39999389648</ele>
        <time>2013-09-04T16:21:56Z</time>
      </trkpt>
      <trkpt lat="49.18316" lon="1.73184">
        <ele>145</ele>
        <time>2013-09-04T16:22:10Z</time>
      </trkpt>
      <trkpt lat="49.18309" lon="1.73194">
        <ele>145</ele>
        <time>2013-09-04T16:22:14Z</time>
      </trkpt>
      <trkpt lat="49.18308" lon="1.73233">
        <ele>145.60000610352</ele>
        <time>2013-09-04T16:22:24Z</time>
      </trkpt>
      <trkpt lat="49.18293" lon="1.73254">
        <ele>145</ele>
        <time>2013-09-04T16:23:06Z</time>
      </trkpt>
    </trkseg>
  </trk>
</gpx>